Time,TemperatureF,DewpointF,PressureIn,WindDirection,WindDirectionDegrees,WindSpeedMPH,WindSpeedGustMPH,Humidity,HourlyPrecipIn,Conditions,Clouds,dailyrainin,SoftwareType,DateUTC
2013-06-26 00:00:00,61.0,60.0,-100.00,WSW,248,2.0,-999.0,94,0.00,,,-99.99,,2013-06-26 07:00:00,
2013-06-26 00:33:00,61.0,60.0,-100.00,WSW,248,2.0,-999.0,94,0.00,,,-99.99,,2013-06-26 07:33:00,
2013-06-26 00:53:00,61.0,60.0,-100.00,WSW,248,2.0,-999.0,94,0.00,,,-99.99,,2013-06-26 07:53:00,
2013-06-26 01:00:00,61.0,60.0,-100.00,SSW,198,1.0,-999.0,94,0.00,,,-99.99,,2013-06-26 08:00:00,
2013-06-26 01:33:00,61.0,60.0,-100.00,SSW,198,1.0,-999.0,94,0.00,,,-99.99,,2013-06-26 08:33:00,
2013-06-26 01:53:00,61.0,60.0,-100.00,SSW,198,1.0,-999.0,94,0.00,,,-99.99,,2013-06-26 08:53:00,
2013-06-26 02:00:00,61.0,60.0,-100.00,ENE,71,1.0,-999.0,94,0.00,,,-99.99,,2013-06-26 09:00:00,
2013-06-26 02:33:00,61.0,60.0,-100.00,ENE,71,1.0,-999.0,94,0.00,,,-99.99,,2013-06-26 09:33:00,
2013-06-26 02:53:00,61.0,60.0,-100.00,ENE,71,1.0,-999.0,94,0.00,,,-99.99,,2013-06-26 09:53:00,
2013-06-26 03:00:00,62.0,60.0,-100.00,ENE,59,2.0,-999.0,95,0.00,,,-99.99,,2013-06-26 10:00:00,
2013-06-26 03:22:00,62.0,60.0,-100.00,ENE,59,2.0,-999.0,95,0.00,,,-99.99,,2013-06-26 10:22:00,
2013-06-26 03:34:00,62.0,60.0,-100.00,ENE,59,2.0,-999.0,95,0.00,,,-99.99,,2013-06-26 10:34:00,
2013-06-26 03:53:00,62.0,60.0,-100.00,ENE,59,2.0,-999.0,95,0.00,,,-99.99,,2013-06-26 10:53:00,
2013-06-26 04:00:00,62.0,60.0,-100.00,ENE,65,2.0,-999.0,95,0.00,,,-99.99,,2013-06-26 11:00:00,
2013-06-26 04:33:00,62.0,60.0,-100.00,ENE,65,2.0,-999.0,95,0.00,,,-99.99,,2013-06-26 11:33:00,
2013-06-26 04:52:00,62.0,60.0,-100.00,ENE,65,2.0,-999.0,95,0.00,,,-99.99,,2013-06-26 11:52:00,
2013-06-26 05:22:00,62.0,60.0,-100.00,NE,34,2.0,-999.0,95,0.00,,,-99.99,,2013-06-26 12:22:00,
2013-06-26 05:34:00,62.0,60.0,-100.00,NE,34,2.0,-999.0,95,0.00,,,-99.99,,2013-06-26 12:34:00,
2013-06-26 05:52:00,62.0,60.0,-100.00,NE,34,2.0,-999.0,95,0.00,,,-99.99,,2013-06-26 12:52:00,
2013-06-26 06:00:00,62.0,60.0,-100.00,SSW,210,1.0,-999.0,95,0.00,,,-99.99,,2013-06-26 13:00:00,
2013-06-26 06:34:00,62.0,60.0,-100.00,SSW,210,1.0,-999.0,95,0.00,,,-99.99,,2013-06-26 13:34:00,
2013-06-26 06:53:00,62.0,60.0,-100.00,SSW,210,1.0,-999.0,95,0.00,,,-99.99,,2013-06-26 13:53:00,
2013-06-26 07:00:00,62.0,60.0,-100.00,NNE,14,2.0,-999.0,95,0.00,,,-99.99,,2013-06-26 14:00:00,
2013-06-26 07:34:00,62.0,60.0,-100.00,NNE,14,2.0,-999.0,95,0.00,,,-99.99,,2013-06-26 14:34:00,
2013-06-26 07:53:00,62.0,60.0,-100.00,NNE,14,2.0,-999.0,95,0.00,,,-99.99,,2013-06-26 14:53:00,
2013-06-26 08:00:00,62.0,61.0,-100.00,WSW,248,2.0,-999.0,95,0.00,,,-99.99,,2013-06-26 15:00:00,
2013-06-26 08:34:00,62.0,61.0,-100.00,WSW,248,2.0,-999.0,95,0.00,,,-99.99,,2013-06-26 15:34:00,
2013-06-26 08:53:00,62.0,61.0,-100.00,WSW,248,2.0,-999.0,95,0.00,,,-99.99,,2013-06-26 15:53:00,
2013-06-26 09:00:00,63.0,62.0,-100.00,SSW,211,6.0,-999.0,95,0.00,,,-99.99,,2013-06-26 16:00:00,
2013-06-26 09:22:00,63.0,62.0,-100.00,SSW,211,6.0,-999.0,95,0.00,,,-99.99,,2013-06-26 16:22:00,
2013-06-26 09:34:00,63.0,62.0,-100.00,SSW,211,6.0,-999.0,95,0.00,,,-99.99,,2013-06-26 16:34:00,
2013-06-26 09:52:00,63.0,62.0,-100.00,SSW,211,6.0,-999.0,95,0.00,,,-99.99,,2013-06-26 16:52:00,
2013-06-26 10:00:00,64.0,62.0,-100.00,SW,215,5.0,-999.0,93,0.00,,,-99.99,,2013-06-26 17:00:00,
2013-06-26 10:33:00,64.0,62.0,-100.00,SW,215,5.0,-999.0,93,0.00,,,-99.99,,2013-06-26 17:33:00,
2013-06-26 10:52:00,64.0,62.0,-100.00,SW,215,5.0,-999.0,93,0.00,,,-99.99,,2013-06-26 17:52:00,
2013-06-26 11:00:00,67.0,62.0,-100.00,SSW,194,4.0,-999.0,82,0.00,,,-99.99,,2013-06-26 18:00:00,
2013-06-26 11:34:00,67.0,62.0,-100.00,SSW,194,4.0,-999.0,82,0.00,,,-99.99,,2013-06-26 18:34:00,
2013-06-26 11:52:00,67.0,62.0,-100.00,SSW,194,4.0,-999.0,82,0.00,,,-99.99,,2013-06-26 18:52:00,
2013-06-26 12:00:00,69.0,64.0,-100.00,SW,225,7.0,-999.0,85,0.00,,,-99.99,,2013-06-26 19:00:00,
2013-06-26 12:33:00,69.0,64.0,-100.00,SW,225,7.0,-999.0,85,0.00,,,-99.99,,2013-06-26 19:33:00,
2013-06-26 12:43:00,69.0,64.0,-100.00,SW,225,7.0,-999.0,85,0.00,,,-99.99,,2013-06-26 19:43:00,
2013-06-26 12:52:00,69.0,64.0,-100.00,SW,225,7.0,-999.0,85,0.00,,,-99.99,,2013-06-26 19:52:00,
2013-06-26 13:00:00,72.0,62.0,-100.00,West,281,5.0,-999.0,71,0.00,,,-99.99,,2013-06-26 20:00:00,
2013-06-26 13:34:00,72.0,62.0,-100.00,West,281,5.0,-999.0,71,0.00,,,-99.99,,2013-06-26 20:34:00,
2013-06-26 13:52:00,72.0,62.0,-100.00,West,281,5.0,-999.0,71,0.00,,,-99.99,,2013-06-26 20:52:00,
2013-06-26 14:00:00,73.0,63.0,-100.00,SW,232,6.0,-999.0,69,0.00,,,-99.99,,2013-06-26 21:00:00,
2013-06-26 14:23:00,73.0,63.0,-100.00,SW,232,6.0,-999.0,69,0.00,,,-99.99,,2013-06-26 21:23:00,
2013-06-26 14:33:00,73.0,63.0,-100.00,SW,232,6.0,-999.0,69,0.00,,,-99.99,,2013-06-26 21:33:00,
2013-06-26 14:52:00,73.0,63.0,-100.00,SW,232,6.0,-999.0,69,0.00,,,-99.99,,2013-06-26 21:52:00,
2013-06-26 15:00:00,72.0,61.0,-100.00,WSW,244,9.0,-999.0,68,0.00,,,-99.99,,2013-06-26 22:00:00,
2013-06-26 15:34:00,72.0,61.0,-100.00,WSW,244,9.0,-999.0,68,0.00,,,-99.99,,2013-06-26 22:34:00,
2013-06-26 15:52:00,72.0,61.0,-100.00,WSW,244,9.0,-999.0,68,0.00,,,-99.99,,2013-06-26 22:52:00,
2013-06-26 16:00:00,74.0,61.0,-100.00,SW,234,14.0,-999.0,62,0.00,,,-99.99,,2013-06-26 23:00:00,
2013-06-26 16:22:00,74.0,61.0,-100.00,SW,234,14.0,-999.0,62,0.00,,,-99.99,,2013-06-26 23:22:00,
2013-06-26 16:34:00,74.0,61.0,-100.00,SW,234,14.0,-999.0,62,0.00,,,-99.99,,2013-06-26 23:34:00,
2013-06-26 16:43:00,74.0,61.0,-100.00,SW,234,14.0,-999.0,62,0.00,,,-99.99,,2013-06-26 23:43:00,
2013-06-26 16:53:00,74.0,61.0,-100.00,SW,234,14.0,-999.0,62,0.00,,,-99.99,,2013-06-26 23:53:00,
2013-06-26 17:00:00,74.0,61.0,-100.00,WNW,282,9.0,-999.0,61,0.00,,,-99.99,,2013-06-27 00:00:00,
2013-06-26 17:33:00,74.0,61.0,-100.00,WNW,282,9.0,-999.0,61,0.00,,,-99.99,,2013-06-27 00:33:00,
2013-06-26 17:43:00,74.0,61.0,-100.00,WNW,282,9.0,-999.0,61,0.00,,,-99.99,,2013-06-27 00:43:00,
2013-06-26 17:53:00,74.0,61.0,-100.00,WNW,282,9.0,-999.0,61,0.00,,,-99.99,,2013-06-27 00:53:00,
2013-06-26 18:00:00,74.0,61.0,-100.00,West,263,2.0,-999.0,63,0.00,,,-99.99,,2013-06-27 01:00:00,
2013-06-26 18:32:00,74.0,61.0,-100.00,West,263,2.0,-999.0,63,0.00,,,-99.99,,2013-06-27 01:32:00,
2013-06-26 18:43:00,74.0,61.0,-100.00,West,263,2.0,-999.0,63,0.00,,,-99.99,,2013-06-27 01:43:00,
2013-06-26 18:53:00,74.0,61.0,-100.00,West,263,2.0,-999.0,63,0.00,,,-99.99,,2013-06-27 01:53:00,
2013-06-26 19:00:00,72.0,60.0,-100.00,SW,234,12.0,-999.0,67,0.00,,,-99.99,,2013-06-27 02:00:00,
2013-06-26 19:22:00,72.0,60.0,-100.00,SW,234,12.0,-999.0,67,0.00,,,-99.99,,2013-06-27 02:22:00,
2013-06-26 19:32:00,72.0,60.0,-100.00,SW,234,12.0,-999.0,67,0.00,,,-99.99,,2013-06-27 02:32:00,
2013-06-26 19:42:00,72.0,60.0,-100.00,SW,234,12.0,-999.0,67,0.00,,,-99.99,,2013-06-27 02:42:00,
2013-06-26 19:52:00,72.0,60.0,-100.00,SW,234,12.0,-999.0,67,0.00,,,-99.99,,2013-06-27 02:52:00,
2013-06-26 20:00:00,69.0,60.0,-100.00,WSW,254,11.0,-999.0,73,0.00,,,-99.99,,2013-06-27 03:00:00,
2013-06-26 20:33:00,69.0,60.0,-100.00,WSW,254,11.0,-999.0,73,0.00,,,-99.99,,2013-06-27 03:33:00,
2013-06-26 20:52:00,69.0,60.0,-100.00,WSW,254,11.0,-999.0,73,0.00,,,-99.99,,2013-06-27 03:52:00,
2013-06-26 21:00:00,64.0,60.0,-100.00,WSW,240,18.0,-999.0,85,0.00,,,-99.99,,2013-06-27 04:00:00,
2013-06-26 21:22:00,64.0,60.0,-100.00,WSW,240,18.0,-999.0,85,0.00,,,-99.99,,2013-06-27 04:22:00,
2013-06-26 21:33:00,64.0,60.0,-100.00,WSW,240,18.0,-999.0,85,0.00,,,-99.99,,2013-06-27 04:33:00,
2013-06-26 21:52:00,64.0,60.0,-100.00,WSW,240,18.0,-999.0,85,0.00,,,-99.99,,2013-06-27 04:52:00,
2013-06-26 22:00:00,62.0,59.0,-100.00,West,281,9.0,-999.0,89,0.00,,,-99.99,,2013-06-27 05:00:00,
2013-06-26 22:22:00,62.0,59.0,-100.00,West,281,9.0,-999.0,89,0.00,,,-99.99,,2013-06-27 05:22:00,
2013-06-26 22:32:00,62.0,59.0,-100.00,West,281,9.0,-999.0,89,0.00,,,-99.99,,2013-06-27 05:32:00,
2013-06-26 22:53:00,62.0,59.0,-100.00,West,281,9.0,-999.0,89,0.00,,,-99.99,,2013-06-27 05:53:00,
2013-06-26 23:00:00,60.0,58.0,-100.00,SW,236,12.0,-999.0,93,0.00,,,-99.99,,2013-06-27 06:00:00,
2013-06-26 23:34:00,60.0,58.0,-100.00,SW,236,12.0,-999.0,93,0.00,,,-99.99,,2013-06-27 06:34:00,
2013-06-26 23:53:00,60.0,58.0,-100.00,SW,236,12.0,-999.0,93,0.00,,,-99.99,,2013-06-27 06:53:00,